EmailTwitter


Surface observations / United Kingdom / EGLC

Regions: Quebec | Canada | USA | Europe | France | UK | Elsewhere
Station
Display
Info & Location for EGLC | Help decoding METAR

Weather Conditions observed on 2017/12/16 at 20:20 UTC at LONDON CITY AIRP, UK (EGLC)

Temperature: 5.0 Celsius.

Dewpoint: 2.0 Celsius.

Relative Humidity: 81%

Windchill Factor: 2.

Winds: Northwest at 13 km/h or 7 knots.

Mean Sea level Pressure: 102.10 kilopascals.

Horizontal visibility: 6.21 statute miles or 9.94 kilometers.

Coded METAR:

EGLC 162020Z AUTO 30007KT 9999 NCD 05/02 Q1021=